createdAt,value
2023-03-12T00:02:08.297Z,95593.22
2023-03-12T00:04:36.186Z,95597.25
2023-03-12T00:07:03.533Z,95603.91
2023-03-12T00:09:30.165Z,95595.81
2023-03-12T00:11:56.695Z,95608.59
2023-03-12T00:14:23.205Z,95607.88
2023-03-12T00:16:49.690Z,95611.38
2023-03-12T00:19:16.208Z,95611.91
2023-03-12T00:21:42.731Z,95618.72
2023-03-12T00:24:09.288Z,95622.53
2023-03-12T00:26:35.857Z,95623.75
2023-03-12T00:31:42.824Z,95632.97
2023-03-12T00:34:09.374Z,95635.63
2023-03-12T00:36:35.918Z,95646.75
2023-03-12T00:39:02.470Z,95655.59
2023-03-12T00:41:30.396Z,95663.13
2023-03-12T00:43:57.293Z,95662.16
2023-03-12T00:46:23.898Z,95663.50
2023-03-12T00:48:50.719Z,95667.19
2023-03-12T00:51:17.369Z,95674.34
2023-03-12T00:53:43.929Z,95673.97
2023-03-12T00:56:10.525Z,95677.19
2023-03-12T00:58:37.113Z,95685.66
2023-03-12T01:01:03.802Z,95687.53
2023-03-12T01:03:30.449Z,95682.31
2023-03-12T01:05:56.939Z,95681.34
2023-03-12T01:08:24.469Z,95681.34
2023-03-12T01:10:51.438Z,95686.56
2023-03-12T01:13:18.017Z,95691.84
2023-03-12T01:18:24.921Z,95694.59
2023-03-12T01:20:51.512Z,95690.22
2023-03-12T01:23:18.095Z,95692.22
2023-03-12T01:25:44.662Z,95704.81
2023-03-12T01:28:11.164Z,95693.63
2023-03-12T01:30:37.679Z,95698.00
2023-03-12T01:33:04.373Z,95699.81
2023-03-12T01:35:31.079Z,95694.63
2023-03-12T01:37:57.692Z,95689.53
2023-03-12T01:40:29.156Z,95701.31
2023-03-12T01:42:57.595Z,95707.13
2023-03-12T01:45:43.124Z,95707.63
2023-03-12T01:48:10.519Z,95701.16
2023-03-12T01:50:37.161Z,95711.41
2023-03-12T01:53:03.690Z,95712.63
2023-03-12T01:55:30.412Z,95700.09
2023-03-12T01:57:58.364Z,95703.66
2023-03-12T02:04:21.458Z,95716.69
2023-03-12T02:07:14.156Z,95719.41
2023-03-12T02:09:45.395Z,95722.66
2023-03-12T02:12:11.939Z,95721.50
2023-03-12T02:14:38.808Z,95719.63
2023-03-12T02:17:55.572Z,95722.81
2023-03-12T02:20:28.170Z,95727.22
2023-03-12T02:23:20.773Z,95724.09
2023-03-12T02:25:49.712Z,95725.66
2023-03-12T02:28:18.407Z,95711.22
2023-03-12T02:30:47.199Z,95719.91
2023-03-12T02:33:15.378Z,95725.84
2023-03-12T02:35:42.767Z,95721.56
2023-03-12T02:38:27.795Z,95723.22
2023-03-12T02:40:55.885Z,95727.00
2023-03-12T02:43:22.949Z,95735.91
2023-03-12T02:45:49.667Z,95734.56
2023-03-12T02:48:16.245Z,95738.09
2023-03-12T02:50:42.811Z,95743.44
2023-03-12T02:53:09.373Z,95737.16
2023-03-12T02:55:35.871Z,95747.28
2023-03-12T02:58:02.378Z,95736.25
2023-03-12T03:00:32.220Z,95746.91
2023-03-12T03:03:02.147Z,95746.91
2023-03-12T03:05:28.681Z,95752.88
2023-03-12T03:07:55.196Z,95755.69
2023-03-12T03:10:21.686Z,95763.66
2023-03-12T03:12:48.224Z,95762.41
2023-03-12T03:15:14.750Z,95770.66
2023-03-12T03:17:41.265Z,95771.59
2023-03-12T03:20:11.245Z,95773.28
2023-03-12T03:22:38.376Z,95775.47
2023-03-12T03:25:06.520Z,95779.53
2023-03-12T03:27:33.527Z,95785.19
2023-03-12T03:30:00.012Z,95784.34
2023-03-12T03:32:26.656Z,95785.38
2023-03-12T03:34:53.221Z,95790.81
2023-03-12T03:37:19.971Z,95796.38
2023-03-12T03:39:46.529Z,95792.59
2023-03-12T03:42:13.019Z,95792.91
2023-03-12T03:44:39.532Z,95793.84
2023-03-12T03:47:06.346Z,95810.75
2023-03-12T03:49:32.878Z,95806.91
2023-03-12T03:51:59.404Z,95810.75
2023-03-12T03:54:26.021Z,95811.78
2023-03-12T03:57:50.108Z,95810.66
2023-03-12T04:00:18.098Z,95818.47
2023-03-12T04:02:44.856Z,95825.59
2023-03-12T04:05:11.931Z,95826.41
2023-03-12T04:07:38.436Z,95815.22
2023-03-12T04:11:18.288Z,95825.34
2023-03-12T04:13:45.156Z,95826.09
2023-03-12T04:16:12.203Z,95826.81
2023-03-12T04:21:01.792Z,95821.47
2023-03-12T04:23:28.340Z,95831.31
2023-03-12T04:25:54.820Z,95826.31
2023-03-12T04:28:21.424Z,95824.41
2023-03-12T04:30:54.881Z,95823.16
2023-03-12T04:33:21.476Z,95822.34
2023-03-12T04:35:54.260Z,95839.25
2023-03-12T04:38:25.103Z,95841.22
2023-03-12T04:41:01.943Z,95836.63
2023-03-12T04:43:29.377Z,95844.25
2023-03-12T04:45:56.521Z,95856.38
2023-03-12T04:48:23.555Z,95847.59
2023-03-12T04:50:50.089Z,95852.63
2023-03-12T04:55:23.007Z,95862.31
2023-03-12T04:57:49.604Z,95867.75
2023-03-12T05:00:16.507Z,95874.31
2023-03-12T05:02:43.072Z,95870.63
2023-03-12T05:05:11.338Z,95873.72
2023-03-12T05:07:37.842Z,95872.69
2023-03-12T05:10:04.515Z,95877.53
2023-03-12T05:12:31.028Z,95875.63
2023-03-12T05:14:57.629Z,95880.84
2023-03-12T05:17:24.132Z,95883.28
2023-03-12T05:19:50.690Z,95882.44
2023-03-12T05:22:17.496Z,95892.25
2023-03-12T05:24:44.148Z,95886.28
2023-03-12T05:27:11.688Z,95887.78
2023-03-12T05:29:38.280Z,95897.78
2023-03-12T05:32:04.925Z,95897.53
2023-03-12T05:34:31.511Z,95901.91
2023-03-12T05:36:58.220Z,95901.81
2023-03-12T05:39:24.740Z,95906.94
2023-03-12T05:42:04.074Z,95912.16
2023-03-12T05:44:30.747Z,95915.78
2023-03-12T05:49:08.594Z,95929.13
2023-03-12T05:51:35.321Z,95929.03
2023-03-12T05:54:02.241Z,95940.94
2023-03-12T05:56:28.797Z,95943.47
2023-03-12T05:58:55.309Z,95948.97
2023-03-12T06:01:23.406Z,95951.38
2023-03-12T06:03:49.978Z,95948.78
2023-03-12T06:06:16.592Z,95959.31
2023-03-12T06:08:43.577Z,95960.13
2023-03-12T06:11:10.258Z,95964.31
2023-03-12T06:13:36.820Z,95961.63
2023-03-12T06:16:08.068Z,95968.81
2023-03-12T06:18:35.294Z,95976.34
2023-03-12T06:23:52.534Z,95973.06
2023-03-12T06:26:19.834Z,95969.16
2023-03-12T06:28:46.697Z,95976.28
2023-03-12T06:32:57.159Z,95967.63
2023-03-12T06:35:23.787Z,95973.81
2023-03-12T06:37:50.375Z,95968.63
2023-03-12T06:40:17.888Z,95962.31
2023-03-12T06:42:44.455Z,95968.66
2023-03-12T06:45:11.097Z,95961.41
2023-03-12T06:47:37.640Z,95967.81
2023-03-12T06:50:04.382Z,95966.41
2023-03-12T06:52:30.973Z,95967.75
2023-03-12T06:54:57.457Z,95971.44
2023-03-12T06:57:23.988Z,95972.66
2023-03-12T06:59:50.796Z,95974.53
2023-03-12T07:02:17.994Z,95978.09
2023-03-12T07:04:44.606Z,95984.88
2023-03-12T07:07:12.085Z,95983.41
2023-03-12T07:09:38.722Z,95985.91
2023-03-12T07:12:05.414Z,95982.94
2023-03-12T07:14:31.946Z,95986.97
2023-03-12T07:16:59.080Z,95980.75
2023-03-12T07:19:25.619Z,95987.06
2023-03-12T07:21:52.148Z,95989.34
2023-03-12T07:24:18.713Z,95993.25
2023-03-12T07:26:46.127Z,95993.13
2023-03-12T07:29:12.704Z,96001.47
2023-03-12T07:31:39.309Z,96007.06
2023-03-12T07:34:06.496Z,96004.38
2023-03-12T07:36:33.568Z,96007.84
2023-03-12T07:39:00.220Z,96010.22
2023-03-12T07:41:26.892Z,96016.63
2023-03-12T07:43:53.426Z,96014.28
2023-03-12T07:46:20.083Z,96020.22
2023-03-12T07:50:32.596Z,96018.44
2023-03-12T07:55:38.801Z,96026.44
2023-03-12T07:58:05.590Z,96027.03
2023-03-12T08:00:32.477Z,96024.06
2023-03-12T08:04:40.248Z,96020.75
2023-03-12T08:07:09.147Z,96019.28
2023-03-12T08:09:35.887Z,96024.03
2023-03-12T08:12:02.614Z,96020.13
2023-03-12T08:14:31.764Z,96019.66
2023-03-12T08:16:58.742Z,96027.84
2023-03-12T08:19:25.350Z,96017.09
2023-03-12T08:21:53.289Z,96023.63
2023-03-12T08:24:21.102Z,96017.69
2023-03-12T08:26:48.035Z,96018.50
2023-03-12T08:29:14.791Z,96019.91
2023-03-12T08:31:53.762Z,96021.53
2023-03-12T08:34:27.938Z,96020.91
2023-03-12T08:36:54.454Z,96015.09
2023-03-12T08:39:21.156Z,96016.50
2023-03-12T08:41:48.018Z,96024.31
2023-03-12T08:44:14.603Z,96013.75
2023-03-12T08:46:41.121Z,96011.25
2023-03-12T08:49:07.710Z,96006.34
2023-03-12T08:51:34.227Z,96003.28
2023-03-12T08:54:00.806Z,96004.81
2023-03-12T08:56:27.399Z,96010.13
2023-03-12T08:58:53.986Z,96006.22
2023-03-12T09:01:20.568Z,96000.25
2023-03-12T09:03:49.584Z,96003.16
2023-03-12T09:06:17.048Z,96009.56
2023-03-12T09:08:43.881Z,96003.25
2023-03-12T09:11:11.948Z,96005.34
2023-03-12T09:14:02.515Z,96005.88
2023-03-12T09:16:25.663Z,95995.34
2023-03-12T09:18:52.221Z,95997.53
2023-03-12T09:21:18.878Z,95995.78
2023-03-12T09:23:45.526Z,95997.34
2023-03-12T09:26:12.462Z,95995.66
2023-03-12T09:28:39.046Z,95997.09
2023-03-12T09:31:06.089Z,95996.81
2023-03-12T09:33:35.104Z,95995.59
2023-03-12T09:36:02.294Z,95999.56
2023-03-12T09:38:29.262Z,95999.44
2023-03-12T09:40:56.640Z,95999.88
2023-03-12T09:43:25.902Z,95999.22
2023-03-12T09:48:34.321Z,96002.25
2023-03-12T09:51:03.749Z,96006.72
2023-03-12T09:53:34.647Z,96008.97
2023-03-12T09:56:03.371Z,96008.13
2023-03-12T09:58:34.392Z,96002.66
2023-03-12T10:01:46.767Z,96000.00
2023-03-12T10:04:18.335Z,96006.13
2023-03-12T10:06:47.627Z,96003.84
2023-03-12T10:09:26.037Z,96000.91
2023-03-12T10:11:58.455Z,95997.56
2023-03-12T10:14:51.172Z,95996.69
2023-03-12T10:17:29.901Z,95989.78
2023-03-12T10:19:56.687Z,95988.25
2023-03-12T10:22:52.390Z,95992.66
2023-03-12T10:25:28.967Z,95991.13
2023-03-12T10:27:59.487Z,95990.34
2023-03-12T10:30:29.171Z,95995.59
2023-03-12T10:33:01.337Z,95995.50
2023-03-12T10:35:30.495Z,95998.19
2023-03-12T10:37:58.177Z,96004.38
2023-03-12T10:40:26.479Z,95999.22
2023-03-12T10:42:53.347Z,95989.53
2023-03-12T10:45:30.961Z,95978.78
2023-03-12T10:48:02.298Z,95979.59
2023-03-12T10:50:30.131Z,95980.50
2023-03-12T10:53:19.225Z,95981.19
2023-03-12T10:55:57.856Z,95990.47
2023-03-12T10:58:25.090Z,95991.09
2023-03-12T11:00:58.965Z,95996.72
2023-03-12T11:03:26.116Z,95991.97
2023-03-12T11:05:54.068Z,95999.88
2023-03-12T11:08:23.781Z,95995.78
2023-03-12T11:10:50.539Z,95996.59
2023-03-12T11:13:26.210Z,96000.53
2023-03-12T11:15:53.362Z,96001.16
2023-03-12T11:18:25.943Z,96000.09
2023-03-12T11:21:12.574Z,95999.97
2023-03-12T11:24:07.318Z,96000.09
2023-03-12T11:26:36.841Z,95998.22
2023-03-12T11:29:03.353Z,95982.59
2023-03-12T11:31:41.479Z,95988.09
2023-03-12T11:34:14.779Z,95978.72
2023-03-12T11:36:50.317Z,95976.91
2023-03-12T11:39:24.415Z,95959.75
2023-03-12T11:42:02.996Z,95959.53
2023-03-12T11:45:04.014Z,95953.75
2023-03-12T11:47:36.280Z,95952.97
2023-03-12T11:50:21.648Z,95960.38
2023-03-12T11:52:57.679Z,95954.22
2023-03-12T11:55:43.953Z,95952.97
2023-03-12T11:58:19.503Z,95942.22
2023-03-12T12:00:47.881Z,95951.41
2023-03-12T12:03:17.722Z,95946.16
2023-03-12T12:06:02.945Z,95946.94
2023-03-12T12:10:08.266Z,95931.78
2023-03-12T12:12:40.606Z,95930.06
2023-03-12T12:15:14.421Z,95926.31
2023-03-12T12:17:40.946Z,95922.50
2023-03-12T12:20:10.647Z,95921.03
2023-03-12T12:22:44.164Z,95929.84
2023-03-12T12:25:26.115Z,95927.25
2023-03-12T12:27:56.001Z,95931.38
2023-03-12T12:30:22.520Z,95930.09
2023-03-12T12:35:23.367Z,95928.44
2023-03-12T12:38:12.637Z,95929.53
2023-03-12T12:40:44.188Z,95928.34
2023-03-12T12:43:17.807Z,95927.50
2023-03-12T12:45:45.226Z,95927.00
2023-03-12T12:48:17.850Z,95936.31
2023-03-12T12:50:45.768Z,95938.94
2023-03-12T12:53:24.053Z,95933.38
2023-03-12T12:55:57.066Z,95934.72
2023-03-12T12:58:27.269Z,95939.38
2023-03-12T13:00:59.380Z,95939.19
2023-03-12T13:03:26.537Z,95931.81
2023-03-12T13:05:53.044Z,95924.00
2023-03-12T13:08:38.335Z,95936.16
2023-03-12T13:11:20.307Z,95934.50
2023-03-12T13:13:51.734Z,95932.75
2023-03-12T13:17:56.687Z,95946.09
2023-03-12T13:20:27.187Z,95937.56
2023-03-12T13:22:59.506Z,95937.00
2023-03-12T13:25:34.916Z,95939.84
2023-03-12T13:28:17.290Z,95947.88
2023-03-12T13:30:47.860Z,95945.34
2023-03-12T13:33:16.028Z,95942.88
2023-03-12T13:35:42.722Z,95941.28
2023-03-12T13:38:17.791Z,95940.34
2023-03-12T13:40:50.368Z,95948.66
2023-03-12T13:43:30.437Z,95952.50
2023-03-12T13:46:08.044Z,95944.97
2023-03-12T13:48:36.028Z,95944.25
2023-03-12T13:51:16.466Z,95952.53
2023-03-12T13:55:09.540Z,95948.31
2023-03-12T13:57:50.193Z,95954.28
2023-03-12T14:02:58.688Z,95943.16
2023-03-12T14:05:26.248Z,95945.56
2023-03-12T14:07:56.142Z,95947.09
2023-03-12T14:10:31.793Z,95952.44
2023-03-12T14:13:16.474Z,95949.13
2023-03-12T14:15:58.745Z,95944.44
2023-03-12T14:18:27.311Z,95950.13
2023-03-12T14:21:00.943Z,95947.44
2023-03-12T14:23:35.201Z,95948.22
2023-03-12T14:26:04.173Z,95962.97
2023-03-12T14:28:32.526Z,95950.78
2023-03-12T14:31:06.961Z,95946.50
2023-03-12T14:33:35.980Z,95951.47
2023-03-12T14:36:28.814Z,95948.22
2023-03-12T14:39:10.273Z,95953.72
2023-03-12T14:44:06.454Z,95953.28
2023-03-12T14:46:33.094Z,95942.69
2023-03-12T14:48:59.740Z,95944.03
2023-03-12T14:51:28.397Z,95945.47
2023-03-12T14:53:55.837Z,95945.09
2023-03-12T14:56:27.837Z,95938.97
2023-03-12T14:58:54.664Z,95940.19
2023-03-12T15:01:23.111Z,95942.88
2023-03-12T15:03:52.466Z,95944.81
2023-03-12T15:06:21.937Z,95935.69
2023-03-12T15:08:49.121Z,95925.56
2023-03-12T15:11:20.097Z,95918.25
2023-03-12T15:13:47.395Z,95913.44
2023-03-12T15:16:14.050Z,95917.41
2023-03-12T15:18:40.764Z,95924.84
2023-03-12T15:23:48.145Z,95936.38
2023-03-12T15:26:14.711Z,95943.53
2023-03-12T15:28:42.101Z,95930.09
2023-03-12T15:31:13.924Z,95914.88
2023-03-12T15:33:41.156Z,95912.69
2023-03-12T15:36:26.925Z,95913.94
2023-03-12T15:39:16.539Z,95901.53
2023-03-12T15:44:42.700Z,95923.19
2023-03-12T15:47:11.546Z,95929.13
2023-03-12T15:49:38.739Z,95933.75
2023-03-12T15:52:07.099Z,95927.09
2023-03-12T15:54:35.249Z,95928.63
2023-03-12T15:55:13.787Z,95919.31
2023-03-12T15:57:52.208Z,95938.63
2023-03-12T16:00:20.867Z,95943.16
2023-03-12T16:02:52.143Z,95949.22
2023-03-12T16:05:19.967Z,95943.22
2023-03-12T16:07:46.845Z,95947.97
2023-03-12T16:10:15.178Z,95951.63
2023-03-12T16:12:43.219Z,95951.31
2023-03-12T16:15:17.410Z,95951.16
2023-03-12T16:17:44.191Z,95957.81
2023-03-12T16:20:15.002Z,95957.50
2023-03-12T16:22:41.632Z,95967.28
2023-03-12T16:25:10.065Z,95973.03
2023-03-12T16:27:39.177Z,95968.56
2023-03-12T16:30:07.184Z,95971.69
2023-03-12T16:32:33.675Z,95976.97
2023-03-12T16:35:00.230Z,95977.66
2023-03-12T16:37:26.872Z,95979.63
2023-03-12T16:42:03.604Z,95979.50
2023-03-12T16:44:32.118Z,95980.94
2023-03-12T16:46:58.891Z,95983.50
2023-03-12T16:49:25.547Z,95992.22
2023-03-12T16:51:52.096Z,96001.69
2023-03-12T16:54:18.666Z,95996.31
2023-03-12T16:56:46.844Z,95996.53
2023-03-12T16:59:25.349Z,95993.22
2023-03-12T17:01:51.910Z,96001.47
2023-03-12T17:04:18.483Z,96000.00
2023-03-12T17:06:45.127Z,96017.97
2023-03-12T17:09:11.638Z,96015.63
2023-03-12T17:11:38.951Z,96026.78
2023-03-12T17:14:15.250Z,96028.00
2023-03-12T17:16:41.788Z,96013.94
2023-03-12T17:19:08.316Z,96004.09
2023-03-12T17:21:34.878Z,96008.00
2023-03-12T17:24:01.456Z,96009.94
2023-03-12T17:26:28.009Z,96007.56
2023-03-12T17:28:54.589Z,96012.31
2023-03-12T17:31:21.544Z,96024.13
2023-03-12T17:33:48.105Z,96024.72
2023-03-12T17:36:14.620Z,96030.69
2023-03-12T17:38:41.209Z,96033.47
2023-03-12T17:41:19.846Z,96030.56
2023-03-12T17:43:50.183Z,96037.63
2023-03-12T17:46:16.809Z,96037.50
2023-03-12T17:48:43.335Z,96042.34
2023-03-12T17:53:49.082Z,96037.88
2023-03-12T17:56:17.996Z,96050.34
2023-03-12T17:58:45.014Z,96044.78
2023-03-12T18:01:13.469Z,96039.78
2023-03-12T18:03:40.289Z,96045.53
2023-03-12T18:06:07.066Z,96063.25
2023-03-12T18:08:33.575Z,96067.97
2023-03-12T18:11:01.754Z,96066.50
2023-03-12T18:13:28.471Z,96059.91
2023-03-12T18:15:56.988Z,96054.34
2023-03-12T18:18:24.787Z,96058.78
2023-03-12T18:20:51.783Z,96074.81
2023-03-12T18:23:18.814Z,96078.53
2023-03-12T18:25:46.135Z,96079.41
2023-03-12T18:28:14.058Z,96089.34
2023-03-12T18:30:40.644Z,96093.97
2023-03-12T18:33:07.223Z,96089.47
2023-03-12T18:38:13.624Z,96094.22
2023-03-12T18:40:40.215Z,96101.09
2023-03-12T18:43:06.694Z,96097.88
2023-03-12T18:45:33.402Z,96102.19
2023-03-12T18:47:59.941Z,96109.22
2023-03-12T18:50:26.509Z,96109.78
2023-03-12T18:52:53.042Z,96106.88
2023-03-12T18:55:19.568Z,96110.50
2023-03-12T18:57:47.643Z,96108.09
2023-03-12T19:00:17.305Z,96102.81
2023-03-12T19:02:46.522Z,96090.66
2023-03-12T19:07:55.290Z,96079.31
2023-03-12T19:10:21.854Z,96087.38
2023-03-12T19:12:53.289Z,96094.19
2023-03-12T19:15:21.947Z,96097.75
2023-03-12T19:17:48.583Z,96111.88
2023-03-12T19:20:15.705Z,96101.88
2023-03-12T19:25:20.540Z,96118.59
2023-03-12T19:27:47.135Z,96114.94
2023-03-12T19:30:13.942Z,96124.16
2023-03-12T19:32:44.141Z,96118.28
2023-03-12T19:35:11.579Z,96118.41
2023-03-12T19:37:38.163Z,96115.31
2023-03-12T19:42:45.252Z,96127.88
2023-03-12T19:45:11.880Z,96120.94
2023-03-12T19:47:38.453Z,96131.34
2023-03-12T19:50:05.225Z,96114.97
2023-03-12T19:52:31.794Z,96122.00
2023-03-12T19:55:04.684Z,96132.28
2023-03-12T19:57:32.204Z,96139.72
2023-03-12T19:59:58.772Z,96145.94
2023-03-12T20:02:26.222Z,96154.53
2023-03-12T20:04:53.001Z,96139.59
2023-03-12T20:07:19.515Z,96139.91
2023-03-12T20:09:46.017Z,96143.47
2023-03-12T20:12:12.568Z,96146.13
2023-03-12T20:14:41.374Z,96138.47
2023-03-12T20:17:09.005Z,96150.91
2023-03-12T20:19:35.616Z,96144.16
2023-03-12T20:22:02.440Z,96151.44
2023-03-12T20:26:15.174Z,96160.97
2023-03-12T20:28:41.867Z,96168.28
2023-03-12T20:31:15.206Z,96148.91
2023-03-12T20:33:42.281Z,96157.28
2023-03-12T20:36:10.446Z,96158.22
2023-03-12T20:38:37.601Z,96155.47
2023-03-12T20:41:04.732Z,96157.38
2023-03-12T20:43:31.482Z,96153.31
2023-03-12T20:45:58.091Z,96144.81
2023-03-12T20:48:24.711Z,96153.53
2023-03-12T20:50:51.385Z,96163.19
2023-03-12T20:53:18.010Z,96157.22
2023-03-12T20:55:44.572Z,96152.56
2023-03-12T21:00:51.078Z,96167.41
2023-03-12T21:03:19.261Z,96166.78
2023-03-12T21:05:53.644Z,96167.63
2023-03-12T21:08:20.291Z,96169.28
2023-03-12T21:10:46.881Z,96162.16
2023-03-12T21:13:13.429Z,96169.28
2023-03-12T21:15:39.921Z,96170.59
2023-03-12T21:18:06.611Z,96163.56
2023-03-12T21:20:33.346Z,96159.84
2023-03-12T21:23:00.927Z,96166.19
2023-03-12T21:25:27.546Z,96168.81
2023-03-12T21:27:54.926Z,96181.44
2023-03-12T21:30:21.591Z,96173.75
2023-03-12T21:32:48.205Z,96163.50
2023-03-12T21:35:14.942Z,96174.44
2023-03-12T21:37:41.494Z,96177.25
2023-03-12T21:40:09.225Z,96179.19
2023-03-12T21:42:35.841Z,96183.25
2023-03-12T21:45:02.346Z,96180.41
2023-03-12T21:47:28.893Z,96171.81
2023-03-12T21:49:55.457Z,96179.06
2023-03-12T21:52:22.032Z,96178.25
2023-03-12T21:54:48.563Z,96182.75
2023-03-12T21:57:15.111Z,96169.50
2023-03-12T21:59:41.610Z,96165.66
2023-03-12T22:02:11.080Z,96173.13
2023-03-12T22:04:37.719Z,96179.09
2023-03-12T22:07:04.284Z,96170.41
2023-03-12T22:09:30.820Z,96172.63
2023-03-12T22:11:57.320Z,96177.03
2023-03-12T22:14:24.326Z,96183.94
2023-03-12T22:16:50.845Z,96184.78
2023-03-12T22:19:18.342Z,96191.31
2023-03-12T22:21:44.867Z,96201.69
2023-03-12T22:24:12.672Z,96195.09
2023-03-12T22:26:39.321Z,96196.03
2023-03-12T22:29:07.047Z,96204.84
2023-03-12T22:31:33.657Z,96210.09
2023-03-12T22:34:00.321Z,96204.94
2023-03-12T22:36:26.980Z,96210.31
2023-03-12T22:38:53.578Z,96199.72
2023-03-12T22:41:27.264Z,96209.25
2023-03-12T22:43:55.124Z,96216.16
2023-03-12T22:46:22.754Z,96205.59
2023-03-12T22:48:52.520Z,96202.34
2023-03-12T22:51:19.182Z,96215.03
2023-03-12T22:53:45.666Z,96216.16
2023-03-12T22:57:47.126Z,96217.31
2023-03-12T23:00:16.402Z,96206.81
2023-03-12T23:02:42.932Z,96213.16
2023-03-12T23:05:09.532Z,96200.88
2023-03-12T23:07:36.168Z,96206.53
2023-03-12T23:10:02.859Z,96202.97
2023-03-12T23:14:01.885Z,96211.88
2023-03-12T23:16:28.630Z,96207.50
2023-03-12T23:18:56.625Z,96210.00
2023-03-12T23:21:24.301Z,96207.28
2023-03-12T23:25:12.749Z,96212.75
2023-03-12T23:27:39.291Z,96201.19
2023-03-12T23:30:06.115Z,96201.63
2023-03-12T23:32:32.740Z,96198.25
2023-03-12T23:34:59.284Z,96194.81
2023-03-12T23:40:06.627Z,96202.91
2023-03-12T23:45:12.604Z,96197.09
2023-03-12T23:47:39.172Z,96198.19
2023-03-12T23:50:06.147Z,96199.94
2023-03-12T23:52:32.656Z,96207.69
2023-03-12T23:54:59.137Z,96211.47
2023-03-12T23:59:43.324Z,96200.28
